Galveston Highway — 3FAJ5 — position and weather

sailwx.info

Track history (hours):
 
Tides and Currents Weather Stations Pressure Air Temp Water Temp Dewpoint Dewpoint Depression Visibility Wind Speed Wind Dir Waves Ship Positions

Galveston Highway

Last reported at 2018-Apr-22 08:30 UTC. Time now 2018-Apr-22 08:39 UTC.
Position N 51°19' E 002°39'.

Length 199 m; draft 9.3 m.

Type: Cargo ship. MMSI: 353100000.

Date/timePositionNaut miles runAvg speedWind from/ knotsBaromVisibWave heightAir tempDewpointWater temp
2018-Apr-22 08:30N 51°19' E 002°39'0 0.8
2018-Apr-22 08:00N 51°19' E 002°39'2 4.3
2018-Apr-22 07:30N 51°21' E 002°36'3 6.0
2018-Apr-22 07:00N 51°22' E 002°32'4 8.5
2018-Apr-22 06:30N 51°21' E 002°25'5 9.1
2018-Apr-22 06:00N 51°19' E 002°19'5 9.4
2018-Apr-22 05:30N 51°16' E 002°12'5 9.6
2018-Apr-22 05:00N 51°14' E 002°06'714.1
2018-Apr-22 04:31N 51°11' E 001°56'815.1
2018-Apr-22 04:01N 51°06' E 001°46'816.9
2018-Apr-22 03:30N 50°60' E 001°37'817.1
2018-Apr-22 03:01N 50°53' E 001°29'815.9
2018-Apr-22 02:30N 50°45' E 001°25'714.1
2018-Apr-22 02:00N 50°39' E 001°18'714.4
2018-Apr-22 01:30N 50°35' E 001°10'714.4
2018-Apr-22 01:00N 50°31' E 000°60'714.4
2018-Apr-22 00:31N 50°29' E 000°49'714.6
2018-Apr-22 00:00N 50°27' E 000°38'714.6
2018-Apr-21 23:30N 50°25' E 000°27'714.5
2018-Apr-21 23:00N 50°23' E 000°16'714.8
2018-Apr-21 22:30N 50°21' E 000°05'714.8
2018-Apr-21 22:01N 50°19' W 000°06'714.4
2018-Apr-21 21:30N 50°18' W 000°17'714.6
2018-Apr-21 21:01N 50°17' W 000°29'714.1
2018-Apr-21 20:30N 50°18' W 000°40'714.0
2018-Apr-21 20:00N 50°18' W 000°51'713.3
2018-Apr-21 19:31N 50°18' W 001°01'612.5
2018-Apr-21 19:01N 50°21' W 001°10'612.2
2018-Apr-21 18:31N 50°24' W 001°18'611.8
2018-Apr-21 18:00N 50°23' W 001°28'611.5
2018-Apr-21 17:31N 50°23' W 001°37'611.7
2018-Apr-21 17:00N 50°23' W 001°46'611.7
2018-Apr-21 16:30N 50°23' W 001°55'611.8
2018-Apr-21 16:00N 50°22' W 002°04'612.4
2018-Apr-21 15:30N 50°22' W 002°14'713.3
2018-Apr-21 15:00N 50°21' W 002°24'713.9
2018-Apr-21 14:30N 50°21' W 002°35'714.2
2018-Apr-21 14:00N 50°22' W 002°46'714.2
2018-Apr-21 13:30N 50°23' W 002°57'714.4
2018-Apr-21 13:00N 50°24' W 003°08'714.2
2018-Apr-21 12:30N 50°25' W 003°20'4 8.7
2018-Apr-21 12:00N 50°24' W 003°26'511.0
2018-Apr-21 11:30N 50°19' W 003°24'713.5
2018-Apr-21 11:00N 50°12' W 003°22'714.0
2018-Apr-21 10:31N 50°05' W 003°22'713.7
2018-Apr-21 10:01N 49°60' W 003°28'816.7
2018-Apr-21 09:31N 49°57' W 003°41'917.3
2018-Apr-21 09:00N 49°54' W 003°54'917.2
2018-Apr-21 08:30N 49°51' W 004°06'1017.3
2018-Apr-21 07:56N 49°48' W 004°21'717.1
2018-Apr-21 07:30N 49°46' W 004°31'817.0
2018-Apr-21 07:00N 49°43' W 004°44'816.8
2018-Apr-21 06:30N 49°41' W 004°56'816.3
2018-Apr-21 06:00N 49°36' W 005°06'916.6
2018-Apr-21 05:29N 49°29' W 005°15'816.6
2018-Apr-21 05:00N 49°23' W 005°22'1116.3
2018-Apr-21 04:19N 49°14' W 005°33'2115.8
2018-Apr-21 02:59N 48°58' W 005°55'1515.1
2018-Apr-21 01:59N 48°47' W 006°09'1514.8
2018-Apr-21 00:58N 48°35' W 006°23'4514.8
2018-Apr-20 21:59N 48°01' W 007°07'  
Track history (hours):
 
Tides and Currents Weather Stations Pressure Air Temp Water Temp Dewpoint Dewpoint Depression Visibility Wind Speed Wind Dir Waves Ship Positions

Galveston Highway

Last reported at 2018-Apr-22 08:30 UTC. Time now 2018-Apr-22 08:39 UTC.
Position N 51°19' E 002°39'.

Length 199 m; draft 9.3 m.

Type: Cargo ship. MMSI: 353100000.

Date/timePositionNaut miles runAvg speedWind from/ knotsBaromVisibWave heightAir tempDewpointWater temp
2018-Apr-22 08:30N 51°19' E 002°39'0 0.8
2018-Apr-22 08:00N 51°19' E 002°39'2 4.3
2018-Apr-22 07:30N 51°21' E 002°36'3 6.0
2018-Apr-22 07:00N 51°22' E 002°32'4 8.5
2018-Apr-22 06:30N 51°21' E 002°25'5 9.1
2018-Apr-22 06:00N 51°19' E 002°19'5 9.4
2018-Apr-22 05:30N 51°16' E 002°12'5 9.6
2018-Apr-22 05:00N 51°14' E 002°06'714.1
2018-Apr-22 04:31N 51°11' E 001°56'815.1
2018-Apr-22 04:01N 51°06' E 001°46'816.9
2018-Apr-22 03:30N 50°60' E 001°37'817.1
2018-Apr-22 03:01N 50°53' E 001°29'815.9
2018-Apr-22 02:30N 50°45' E 001°25'714.1
2018-Apr-22 02:00N 50°39' E 001°18'714.4
2018-Apr-22 01:30N 50°35' E 001°10'714.4
2018-Apr-22 01:00N 50°31' E 000°60'714.4
2018-Apr-22 00:31N 50°29' E 000°49'714.6
2018-Apr-22 00:00N 50°27' E 000°38'714.6
2018-Apr-21 23:30N 50°25' E 000°27'714.5
2018-Apr-21 23:00N 50°23' E 000°16'714.8
2018-Apr-21 22:30N 50°21' E 000°05'714.8
2018-Apr-21 22:01N 50°19' W 000°06'714.4
2018-Apr-21 21:30N 50°18' W 000°17'714.6
2018-Apr-21 21:01N 50°17' W 000°29'714.1
2018-Apr-21 20:30N 50°18' W 000°40'714.0
2018-Apr-21 20:00N 50°18' W 000°51'713.3
2018-Apr-21 19:31N 50°18' W 001°01'612.5
2018-Apr-21 19:01N 50°21' W 001°10'612.2
2018-Apr-21 18:31N 50°24' W 001°18'611.8
2018-Apr-21 18:00N 50°23' W 001°28'611.5
2018-Apr-21 17:31N 50°23' W 001°37'611.7
2018-Apr-21 17:00N 50°23' W 001°46'611.7
2018-Apr-21 16:30N 50°23' W 001°55'611.8
2018-Apr-21 16:00N 50°22' W 002°04'612.4
2018-Apr-21 15:30N 50°22' W 002°14'713.3
2018-Apr-21 15:00N 50°21' W 002°24'713.9
2018-Apr-21 14:30N 50°21' W 002°35'714.2
2018-Apr-21 14:00N 50°22' W 002°46'714.2
2018-Apr-21 13:30N 50°23' W 002°57'714.4
2018-Apr-21 13:00N 50°24' W 003°08'714.2
2018-Apr-21 12:30N 50°25' W 003°20'4 8.7
2018-Apr-21 12:00N 50°24' W 003°26'511.0
2018-Apr-21 11:30N 50°19' W 003°24'713.5
2018-Apr-21 11:00N 50°12' W 003°22'714.0
2018-Apr-21 10:31N 50°05' W 003°22'713.7
2018-Apr-21 10:01N 49°60' W 003°28'816.7
2018-Apr-21 09:31N 49°57' W 003°41'917.3
2018-Apr-21 09:00N 49°54' W 003°54'917.2
2018-Apr-21 08:30N 49°51' W 004°06'1017.3
2018-Apr-21 07:56N 49°48' W 004°21'717.1
2018-Apr-21 07:30N 49°46' W 004°31'817.0
2018-Apr-21 07:00N 49°43' W 004°44'816.8
2018-Apr-21 06:30N 49°41' W 004°56'816.3
2018-Apr-21 06:00N 49°36' W 005°06'916.6
2018-Apr-21 05:29N 49°29' W 005°15'816.6
2018-Apr-21 05:00N 49°23' W 005°22'1116.3
2018-Apr-21 04:19N 49°14' W 005°33'2115.8
2018-Apr-21 02:59N 48°58' W 005°55'1515.1
2018-Apr-21 01:59N 48°47' W 006°09'1514.8
2018-Apr-21 00:58N 48°35' W 006°23'4514.8
2018-Apr-20 21:59N 48°01' W 007°07'  

Dump ship's entire track history